Time;durP1;ratioP1;P1;durP2;ratioP2;P2;SDS_P1;SDS_P2;PMS_P1;PMS_P2;Temp;Humidity;BMP_temperature;BMP_pressure;BME280_temperature;BME280_humidity;BME280_pressure;Samples;Min_cycle;Max_cycle;Signal;HPM_P1;HPM_P2
2021/12/13 00:00:27;;;;;;;54.55;29.10;;;10.60;99.90;;;;;;5061766;27;90174;-44
2021/12/13 00:03:05;;;;;;;;;;;10.60;99.90;;;;;;5057233;27;88488;-39
2021/12/13 00:05:43;;;;;;;56.17;31.33;;;10.60;99.90;;;;;;5063635;27;90254;-44
2021/12/13 00:08:11;;;;;;;;;;;10.70;99.90;;;;;;5063235;27;89462;-37
2021/12/13 00:10:52;;;;;;;60.83;33.33;;;10.60;99.90;;;;;;5064544;27;89214;-39
2021/12/13 00:13:27;;;;;;;55.83;30.60;;;10.60;99.90;;;;;;5062530;27;89765;-39
2021/12/13 00:15:58;;;;;;;44.63;28.55;;;10.60;99.90;;;;;;5061192;27;90627;-39
2021/12/13 00:18:38;;;;;;;55.63;30.00;;;10.60;99.90;;;;;;5061874;27;90772;-40
2021/12/13 00:21:29;;;;;;;49.40;27.90;;;10.60;99.90;;;;;;5061598;27;87845;-38
2021/12/13 00:24:03;;;;;;;51.80;26.23;;;10.60;99.90;;;;;;5061483;27;88207;-37
2021/12/13 00:26:32;;;;;;;49.28;27.35;;;10.60;99.90;;;;;;5061939;27;89418;-40
2021/12/13 00:29:07;;;;;;;40.00;25.33;;;10.60;99.90;;;;;;5060731;27;89756;-41
2021/12/13 00:32:01;;;;;;;49.45;26.33;;;10.60;99.90;;;;;;5061997;27;88563;-39
2021/12/13 00:34:31;;;;;;;47.33;25.73;;;10.70;99.90;;;;;;5061649;27;87543;-39
2021/12/13 00:37:03;;;;;;;43.15;23.30;;;10.70;99.90;;;;;;5061949;27;90154;-43
2021/12/13 00:39:35;;;;;;;45.10;24.73;;;10.70;99.90;;;;;;5061029;27;90605;-42
2021/12/13 00:42:03;;;;;;;39.17;23.33;;;10.70;99.90;;;;;;5061235;27;89290;-41
2021/12/13 00:44:45;;;;;;;38.50;23.90;;;10.70;99.90;;;;;;5061012;27;89593;-39
2021/12/13 00:47:20;;;;;;;38.00;23.98;;;10.70;99.90;;;;;;5059854;27;90295;-40
2021/12/13 00:49:54;;;;;;;39.78;23.90;;;10.70;99.90;;;;;;5061511;27;89581;-37
2021/12/13 00:52:20;;;;;;;34.33;24.33;;;10.60;99.90;;;;;;5060588;27;90337;-38
2021/12/13 00:54:47;;;;;;;35.78;24.38;;;10.60;99.90;;;;;;5060481;27;89882;-35
2021/12/13 00:57:31;;;;;;;38.05;23.50;;;10.60;99.90;;;;;;5060734;27;88898;-35
2021/12/13 01:00:04;;;;;;;32.90;21.45;;;10.60;99.90;;;;;;5060496;27;89875;-35
2021/12/13 01:02:39;;;;;;;33.90;23.98;;;10.60;99.90;;;;;;5060592;27;87421;-35
2021/12/13 01:05:16;;;;;;;37.92;24.02;;;10.60;99.90;;;;;;5060786;27;89142;-38
2021/12/13 01:08:15;;;;;;;34.08;23.83;;;10.60;99.90;;;;;;5060532;27;90270;-40
2021/12/13 01:10:52;;;;;;;40.10;25.17;;;10.60;99.90;;;;;;5059523;27;90309;-42
2021/12/13 01:13:28;;;;;;;36.30;24.05;;;10.60;99.90;;;;;;5060767;27;88045;-43
2021/12/13 01:16:10;;;;;;;37.30;24.98;;;10.60;99.90;;;;;;5060750;27;87471;-39
2021/12/13 01:19:00;;;;;;;44.67;27.02;;;10.60;99.90;;;;;;5060303;27;90694;-43
2021/12/13 01:21:42;;;;;;;40.15;26.80;;;10.60;99.90;;;;;;5059954;27;90082;-41
2021/12/13 01:24:20;;;;;;;39.78;26.05;;;10.60;99.90;;;;;;5060130;27;89272;-41
2021/12/13 01:26:48;;;;;;;37.00;26.77;;;10.60;99.90;;;;;;5059640;27;88283;-41
2021/12/13 01:29:23;;;;;;;40.92;24.50;;;10.60;99.90;;;;;;5059689;27;90250;-34
2021/12/13 01:32:07;;;;;;;35.10;25.75;;;10.60;99.90;;;;;;5060537;27;89181;-43
2021/12/13 01:34:36;;;;;;;36.17;23.33;;;10.60;99.90;;;;;;5059513;27;88992;-42
2021/12/13 01:37:14;;;;;;;35.08;24.27;;;10.60;99.90;;;;;;5076149;27;88920;-35
2021/12/13 01:39:48;;;;;;;25.17;22.13;;;10.60;99.90;;;;;;5059673;27;90035;-39
2021/12/13 01:42:29;;;;;;;32.00;21.27;;;10.60;99.90;;;;;;5060187;27;89754;-43
2021/12/13 01:44:59;;;;;;;35.70;21.50;;;10.60;99.90;;;;;;5060512;27;88538;-40
2021/12/13 01:47:29;;;;;;;29.65;20.65;;;10.60;99.90;;;;;;5060100;27;89210;-37
2021/12/13 01:50:17;;;;;;;25.42;18.23;;;10.60;99.90;;;;;;5059837;27;90650;-45
2021/12/13 01:52:44;;;;;;;27.75;18.20;;;10.60;99.90;;;;;;5059969;27;89530;-39
2021/12/13 01:55:15;;;;;;;27.73;17.57;;;10.60;99.90;;;;;;5060406;27;88847;-36
2021/12/13 01:57:49;;;;;;;21.58;16.85;;;10.60;99.90;;;;;;5059721;27;88124;-41
2021/12/13 02:00:33;;;;;;;24.15;18.67;;;10.60;99.90;;;;;;5059617;27;89413;-35
2021/12/13 02:02:59;;;;;;;28.35;18.25;;;10.60;99.90;;;;;;5059920;27;89663;-41
2021/12/13 02:05:31;;;;;;;24.50;19.73;;;10.60;99.90;;;;;;5059778;27;90001;-38
2021/12/13 02:07:59;;;;;;;23.40;19.38;;;10.70;99.90;;;;;;5059835;27;89991;-35
2021/12/13 02:10:29;;;;;;;25.92;19.60;;;10.70;99.90;;;;;;5059376;27;90484;-35
2021/12/13 02:13:01;;;;;;;25.80;19.33;;;10.70;99.90;;;;;;5058434;27;89969;-41
2021/12/13 02:18:17;;;;;;;;;;;10.70;99.90;;;;;;5061288;27;88250;-43
2021/12/13 02:20:47;;;;;;;26.93;19.57;;;10.60;99.90;;;;;;5059737;27;91710;-38
2021/12/13 02:23:14;;;;;;;19.98;16.65;;;10.60;99.90;;;;;;5059273;27;89997;-39
2021/12/13 02:25:45;;;;;;;23.65;18.77;;;10.60;99.90;;;;;;5058999;27;87615;-37
2021/12/13 02:28:18;;;;;;;21.95;18.73;;;10.70;99.90;;;;;;5059193;27;88948;-39
2021/12/13 02:30:57;;;;;;;21.10;18.48;;;10.70;99.90;;;;;;5059088;27;90333;-41
2021/12/13 02:33:41;;;;;;;23.00;16.98;;;10.70;99.90;;;;;;5059149;27;89512;-39
2021/12/13 02:36:15;;;;;;;23.10;18.48;;;10.60;99.90;;;;;;5059599;27;89413;-36
2021/12/13 02:38:42;;;;;;;22.42;16.83;;;10.60;99.90;;;;;;5059534;27;89935;-40
2021/12/13 02:41:10;;;;;;;21.67;17.75;;;10.60;99.90;;;;;;5060476;27;90952;-39
2021/12/13 02:43:40;;;;;;;31.33;21.17;;;10.60;99.90;;;;;;5058977;27;88154;-43
2021/12/13 02:46:06;;;;;;;20.23;17.77;;;10.60;99.90;;;;;;5059166;27;88502;-36
2021/12/13 02:48:43;;;;;;;22.27;17.42;;;10.60;99.90;;;;;;5059557;27;89266;-35
2021/12/13 02:51:30;;;;;;;22.20;18.42;;;10.60;99.90;;;;;;5059674;27;90275;-43
2021/12/13 02:54:01;;;;;;;26.42;19.13;;;10.50;99.90;;;;;;5059142;27;89969;-41
2021/12/13 02:56:32;;;;;;;23.67;19.73;;;10.50;99.90;;;;;;5059631;27;89466;-43
2021/12/13 02:58:58;;;;;;;25.42;20.02;;;10.50;99.90;;;;;;5058627;27;88575;-42
2021/12/13 03:01:34;;;;;;;28.95;19.67;;;10.50;99.90;;;;;;5059542;27;90136;-38
2021/12/13 03:04:06;;;;;;;22.95;19.55;;;10.50;99.90;;;;;;5058069;27;89564;-39
2021/12/13 03:06:38;;;;;;;27.25;19.20;;;10.60;99.90;;;;;;5058892;27;89220;-39
2021/12/13 03:09:12;;;;;;;25.05;19.98;;;10.60;99.90;;;;;;5042831;27;88510;-42
2021/12/13 03:11:38;;;;;;;26.70;21.90;;;10.50;99.90;;;;;;5037899;27;90109;-36
2021/12/13 03:14:13;;;;;;;23.73;19.58;;;10.50;99.90;;;;;;5038499;27;89296;-42
2021/12/13 03:16:47;;;;;;;25.13;20.13;;;10.50;99.90;;;;;;5038021;27;89028;-35
2021/12/13 03:19:34;;;;;;;26.98;20.70;;;10.50;99.90;;;;;;5038426;27;87899;-42
2021/12/13 03:27:55;;;;;;;28.85;18.60;;;10.50;99.90;;;;;;4996803;28;88382;-37
2021/12/13 03:30:38;;;;;;;28.17;20.55;;;10.50;99.90;;;;;;4998414;28;88797;-42
2021/12/13 03:33:08;;;;;;;22.65;18.98;;;10.50;99.90;;;;;;4980362;28;91126;-37
2021/12/13 03:35:50;;;;;;;29.65;20.63;;;10.50;99.90;;;;;;4997728;28;89933;-38
2021/12/13 03:38:22;;;;;;;21.27;18.52;;;10.50;99.90;;;;;;4997713;28;89267;-42
2021/12/13 03:40:49;;;;;;;22.40;16.52;;;10.40;99.90;;;;;;4981269;28;87546;-37
2021/12/13 03:43:27;;;;;;;31.33;16.90;;;10.40;99.90;;;;;;4998978;28;90590;-39
2021/12/13 03:45:57;;;;;;;26.85;18.17;;;10.40;99.90;;;;;;4998120;28;89639;-39
2021/12/13 03:48:26;;;;;;;20.75;16.80;;;10.40;99.90;;;;;;4997064;28;88454;-42
2021/12/13 03:50:55;;;;;;;20.13;16.83;;;10.40;99.90;;;;;;4998093;28;88787;-42
2021/12/13 03:53:25;;;;;;;24.20;16.65;;;10.40;99.90;;;;;;4997819;28;90672;-37
2021/12/13 03:55:56;;;;;;;22.55;17.17;;;10.30;99.90;;;;;;4997564;28;89681;-41
2021/12/13 03:58:23;;;;;;;20.83;16.48;;;10.30;99.90;;;;;;4997204;28;88761;-35
2021/12/13 04:00:59;;;;;;;24.38;16.15;;;10.30;99.90;;;;;;4998120;28;90462;-40
2021/12/13 04:03:27;;;;;;;25.10;16.77;;;10.30;99.90;;;;;;4997881;28;89610;-37
2021/12/13 04:05:54;;;;;;;21.70;15.63;;;10.30;99.90;;;;;;4997205;28;88139;-38
2021/12/13 04:08:21;;;;;;;25.27;14.60;;;10.20;99.90;;;;;;4997669;28;88114;-42
2021/12/13 04:10:55;;;;;;;18.97;15.90;;;10.20;99.90;;;;;;4997638;28;87688;-40
2021/12/13 04:13:25;;;;;;;20.80;14.70;;;10.30;99.90;;;;;;4997408;28;90650;-42
2021/12/13 04:16:17;;;;;;;16.63;14.90;;;10.30;99.90;;;;;;4996713;28;89626;-41
2021/12/13 04:21:46;;;;;;;19.05;14.13;;;10.20;99.90;;;;;;4997338;28;87812;-44
2021/12/13 04:24:18;;;;;;;20.50;13.07;;;10.10;99.90;;;;;;4979796;28;91218;-45
2021/12/13 04:26:52;;;;;;;15.20;12.30;;;10.10;99.90;;;;;;4994890;28;90089;-41
2021/12/13 04:29:22;;;;;;;13.38;11.98;;;10.10;99.90;;;;;;4997190;28;87644;-39
2021/12/13 04:31:50;;;;;;;20.92;14.07;;;10.00;99.90;;;;;;4997675;28;89163;-40
2021/12/13 04:34:16;;;;;;;16.52;13.05;;;10.00;99.90;;;;;;4996880;28;89268;-40
2021/12/13 04:36:45;;;;;;;19.65;11.82;;;9.90;99.90;;;;;;4998325;28;88346;-44
2021/12/13 04:39:46;;;;;;;17.08;11.98;;;9.90;99.90;;;;;;5000734;28;88680;-35
2021/12/13 04:42:16;;;;;;;17.13;11.15;;;9.90;99.90;;;;;;4979153;28;90283;-42
2021/12/13 04:45:06;;;;;;;18.35;13.45;;;9.80;99.90;;;;;;5001803;28;89075;-35
2021/12/13 04:47:52;;;;;;;16.50;12.07;;;9.80;99.90;;;;;;5002065;28;89579;-38
2021/12/13 04:50:33;;;;;;;17.13;10.40;;;9.80;99.90;;;;;;5001335;28;88863;-38
2021/12/13 04:52:59;;;;;;;16.55;11.65;;;9.80;99.90;;;;;;5001781;28;87734;-38
2021/12/13 04:55:35;;;;;;;16.15;10.27;;;9.70;99.90;;;;;;5001893;28;90176;-36
2021/12/13 04:58:07;;;;;;;14.73;10.40;;;9.70;99.90;;;;;;4983398;28;91278;-44
2021/12/13 05:00:38;;;;;;;15.75;10.40;;;9.70;99.90;;;;;;5001666;28;88094;-40
2021/12/13 05:03:07;;;;;;;16.38;11.57;;;9.70;99.90;;;;;;5001210;28;87628;-41
2021/12/13 05:05:35;;;;;;;16.85;11.35;;;9.60;99.90;;;;;;5001276;28;90438;-39
2021/12/13 05:08:03;;;;;;;13.50;9.93;;;9.60;99.90;;;;;;5000896;28;89919;-42
2021/12/13 05:10:31;;;;;;;15.27;9.83;;;9.60;99.90;;;;;;5002941;28;89130;-38
2021/12/13 05:13:22;;;;;;;14.43;10.20;;;9.50;99.90;;;;;;5001448;28;87981;-44
2021/12/13 05:15:58;;;;;;;15.63;10.30;;;9.50;99.90;;;;;;5001010;28;90276;-40
2021/12/13 05:18:30;;;;;;;15.85;10.32;;;9.50;99.90;;;;;;5000137;28;90221;-32
2021/12/13 05:21:05;;;;;;;15.38;10.55;;;9.50;99.90;;;;;;4988482;28;89521;-39
2021/12/13 05:23:32;;;;;;;13.93;10.73;;;9.40;99.90;;;;;;4991103;28;89615;-36
2021/12/13 05:26:04;;;;;;;15.13;10.30;;;9.50;99.90;;;;;;4986831;28;90168;-42
2021/12/13 05:28:44;;;;;;;11.05;9.95;;;9.40;99.90;;;;;;4963658;28;89712;-35
2021/12/13 05:31:22;;;;;;;13.82;11.13;;;9.40;99.90;;;;;;5000432;28;88100;-38
2021/12/13 05:33:52;;;;;;;16.58;10.10;;;9.40;99.90;;;;;;4999295;28;87938;-42
2021/12/13 05:36:26;;;;;;;12.05;9.63;;;9.40;99.90;;;;;;4999562;28;90580;-36
2021/12/13 05:39:11;;;;;;;13.80;9.77;;;9.40;99.90;;;;;;4999522;28;89677;-42
2021/12/13 05:41:39;;;;;;;11.80;9.68;;;9.40;99.90;;;;;;5000414;28;89504;-40
2021/12/13 05:44:09;;;;;;;23.00;9.80;;;9.40;99.90;;;;;;5000019;28;89275;-37
2021/12/13 05:46:41;;;;;;;11.23;9.57;;;9.40;99.90;;;;;;5000761;28;90155;-39
2021/12/13 05:49:16;;;;;;;12.68;9.52;;;9.40;99.90;;;;;;5000001;28;90408;-39
2021/12/13 05:51:46;;;;;;;11.00;9.52;;;9.40;99.90;;;;;;5000208;28;87802;-37
2021/12/13 05:54:28;;;;;;;9.52;8.57;;;9.40;99.90;;;;;;5000580;28;89714;-39
2021/12/13 05:57:00;;;;;;;10.07;8.93;;;9.30;99.90;;;;;;5001757;28;91503;-39
2021/12/13 05:59:32;;;;;;;12.13;9.95;;;9.40;99.90;;;;;;4984054;28;89575;-37
2021/12/13 06:02:12;;;;;;;11.60;9.07;;;9.30;99.90;;;;;;4983189;28;89235;-40
2021/12/13 06:05:06;;;;;;;11.55;9.68;;;9.40;99.90;;;;;;5001129;28;90043;-38
2021/12/13 06:07:35;;;;;;;15.93;10.65;;;9.40;99.90;;;;;;4997414;28;90457;-39
2021/12/13 06:10:09;;;;;;;18.75;11.63;;;9.30;99.90;;;;;;4997001;28;89789;-44
2021/12/13 06:12:40;;;;;;;15.75;12.18;;;9.40;99.90;;;;;;4999363;28;87608;-36
2021/12/13 06:15:20;;;;;;;18.67;12.07;;;9.40;99.90;;;;;;4999746;28;89003;-37
2021/12/13 06:18:23;;;;;;;18.08;11.77;;;9.40;99.90;;;;;;4964510;28;90527;-40
2021/12/13 06:21:09;;;;;;;16.73;12.60;;;9.40;99.90;;;;;;4904536;28;89395;-38
2021/12/13 06:23:37;;;;;;;16.77;13.90;;;9.40;99.90;;;;;;4995117;28;87694;-36
2021/12/13 06:26:12;;;;;;;16.85;13.57;;;9.40;99.90;;;;;;4999725;28;89067;-41
2021/12/13 06:28:41;;;;;;;16.33;13.43;;;9.40;99.90;;;;;;4999817;28;90857;-39
2021/12/13 06:31:15;;;;;;;17.20;14.38;;;9.30;99.90;;;;;;4999872;28;89535;-42
2021/12/13 06:33:52;;;;;;;19.70;15.15;;;9.40;99.90;;;;;;4999928;28;88061;-40
2021/12/13 06:36:37;;;;;;;17.38;13.65;;;9.40;99.90;;;;;;5000821;28;89758;-40
2021/12/13 06:39:08;;;;;;;17.05;14.13;;;9.40;99.90;;;;;;4993588;28;90617;-37
2021/12/13 06:41:37;;;;;;;17.92;15.40;;;9.40;99.90;;;;;;4995918;28;88619;-35
2021/12/13 06:44:19;;;;;;;19.17;15.30;;;9.40;99.90;;;;;;4996758;28;88677;-34
2021/12/13 06:47:01;;;;;;;19.58;15.30;;;9.40;99.90;;;;;;5000566;28;89525;-38
2021/12/13 06:49:35;;;;;;;20.08;16.17;;;9.40;99.90;;;;;;5000020;28;90152;-38
2021/12/13 06:52:12;;;;;;;18.33;16.40;;;9.30;99.90;;;;;;4999296;28;89513;-40
2021/12/13 06:54:55;;;;;;;22.08;17.60;;;9.30;99.90;;;;;;4999676;28;87613;-39
2021/12/13 06:57:36;;;;;;;23.77;19.10;;;9.40;99.90;;;;;;5000481;28;88681;-34
2021/12/13 07:00:10;;;;;;;33.20;19.70;;;9.40;99.90;;;;;;4998995;28;90392;-37
2021/12/13 07:02:43;;;;;;;23.40;20.88;;;9.40;99.90;;;;;;4998650;28;90004;-36
2021/12/13 07:05:17;;;;;;;25.73;20.90;;;9.40;99.90;;;;;;5000204;28;89596;-40
2021/12/13 07:08:17;;;;;;;29.73;22.73;;;9.40;99.90;;;;;;4981389;28;87931;-37
2021/12/13 07:11:05;;;;;;;31.13;22.58;;;9.50;99.90;;;;;;4944751;28;91017;-38
2021/12/13 07:13:35;;;;;;;36.35;25.30;;;9.50;99.90;;;;;;4999177;28;89790;-43
2021/12/13 07:16:12;;;;;;;31.27;23.42;;;9.40;99.90;;;;;;4999249;28;88833;-36
2021/12/13 07:18:40;;;;;;;28.90;23.65;;;9.40;99.90;;;;;;4999216;28;87574;-39
2021/12/13 07:21:13;;;;;;;29.15;24.63;;;9.40;99.90;;;;;;4999383;28;90256;-42
2021/12/13 07:24:05;;;;;;;33.03;27.08;;;9.40;99.90;;;;;;4998686;28;89831;-42
2021/12/13 07:26:32;;;;;;;34.33;26.63;;;9.50;99.90;;;;;;4999362;28;88482;-36
2021/12/13 07:28:59;;;;;;;44.88;27.70;;;9.50;99.90;;;;;;4999306;28;89232;-37
2021/12/13 07:31:25;;;;;;;45.28;27.67;;;9.50;99.90;;;;;;4998127;28;90244;-44
2021/12/13 07:33:51;;;;;;;36.35;28.50;;;9.50;99.90;;;;;;4996928;28;90362;-40
2021/12/13 07:36:24;;;;;;;36.35;28.85;;;9.50;99.90;;;;;;4997293;28;88614;-38
2021/12/13 07:39:01;;;;;;;39.22;27.08;;;9.50;99.90;;;;;;4995675;28;88605;-41
2021/12/13 07:41:44;;;;;;;33.10;27.98;;;9.40;99.90;;;;;;4979757;28;90260;-34
2021/12/13 07:44:25;;;;;;;44.00;29.65;;;9.50;99.90;;;;;;4997366;28;89684;-35
2021/12/13 07:47:08;;;;;;;38.17;30.88;;;9.40;99.90;;;;;;4996575;28;88954;-36
2021/12/13 07:49:37;;;;;;;38.38;28.27;;;9.50;99.90;;;;;;4996861;28;88182;-44
2021/12/13 07:52:05;;;;;;;36.25;26.30;;;9.50;99.90;;;;;;4996903;28;90465;-38
2021/12/13 07:54:41;;;;;;;40.67;29.13;;;9.50;99.90;;;;;;4997118;28;90399;-41
2021/12/13 07:57:24;;;;;;;36.55;27.50;;;9.50;99.90;;;;;;4996538;28;87599;-37
2021/12/13 07:59:51;;;;;;;38.10;30.10;;;9.50;99.90;;;;;;4978831;28;88456;-38
2021/12/13 08:02:25;;;;;;;39.03;29.25;;;9.50;99.90;;;;;;4996114;28;91816;-41
2021/12/13 08:04:58;;;;;;;32.75;27.05;;;9.40;99.90;;;;;;4995911;28;89848;-40
2021/12/13 08:07:25;;;;;;;38.08;28.65;;;9.50;99.90;;;;;;4996055;28;87728;-41
2021/12/13 08:10:18;;;;;;;34.03;27.63;;;9.50;99.90;;;;;;4997112;28;90111;-36
2021/12/13 08:12:51;;;;;;;31.33;25.15;;;9.50;99.90;;;;;;4980956;28;90481;-39
2021/12/13 08:15:27;;;;;;;35.63;26.92;;;9.50;99.90;;;;;;5000359;28;90170;-36
2021/12/13 08:18:19;;;;;;;38.08;29.13;;;9.50;99.90;;;;;;4999895;28;89362;-37
2021/12/13 08:21:00;;;;;;;34.08;28.05;;;9.50;99.90;;;;;;4995432;28;89506;-42
2021/12/13 08:23:48;;;;;;;40.35;30.00;;;9.50;99.90;;;;;;5000035;28;90113;-38
2021/12/13 08:26:24;;;;;;;30.58;26.58;;;9.60;99.90;;;;;;4999128;28;89707;-38
2021/12/13 08:28:53;;;;;;;33.88;27.55;;;9.50;99.90;;;;;;5000590;28;89434;-36
2021/12/13 08:31:32;;;;;;;27.70;24.65;;;9.50;99.90;;;;;;5000516;28;89418;-36
2021/12/13 08:34:07;;;;;;;31.50;27.13;;;9.50;99.90;;;;;;5000088;28;89784;-35
2021/12/13 08:36:46;;;;;;;39.25;27.75;;;9.50;99.90;;;;;;4999559;28;90136;-38
2021/12/13 08:39:21;;;;;;;32.70;26.88;;;9.50;99.90;;;;;;4999401;28;87624;-37
2021/12/13 08:41:56;;;;;;;34.30;26.55;;;9.50;99.90;;;;;;5000139;28;89699;-40
2021/12/13 08:44:36;;;;;;;35.78;28.05;;;9.50;99.90;;;;;;4998124;28;90079;-36
2021/12/13 08:47:08;;;;;;;35.78;27.60;;;9.50;99.90;;;;;;4999773;28;90446;-42
2021/12/13 08:49:37;;;;;;;42.38;30.50;;;9.50;99.90;;;;;;5000240;28;89364;-38
2021/12/13 08:52:34;;;;;;;36.53;26.75;;;9.60;99.90;;;;;;4999927;28;89753;-40
2021/12/13 08:55:11;;;;;;;34.63;27.05;;;9.50;99.90;;;;;;4985524;28;89683;-41
2021/12/13 08:57:36;;;;;;;30.95;25.05;;;9.50;99.90;;;;;;4998734;28;89644;-42
2021/12/13 09:00:44;;;;;;;30.15;24.88;;;9.50;99.90;;;;;;4999056;28;87935;-37
2021/12/13 09:03:10;;;;;;;;;;;9.50;99.90;;;;;;4961802;28;89228;-40
2021/12/13 09:06:14;;;;;;;41.63;28.40;;;9.50;99.90;;;;;;5001905;28;91215;-45
2021/12/13 09:08:48;;;;;;;34.60;27.08;;;9.50;99.90;;;;;;4998672;28;90145;-39
2021/12/13 09:11:30;;;;;;;34.58;26.17;;;9.50;99.90;;;;;;4999352;28;88646;-43
2021/12/13 09:14:18;;;;;;;31.67;24.88;;;9.50;99.90;;;;;;4980758;28;88696;-41
2021/12/13 09:17:06;;;;;;;33.07;25.90;;;9.50;99.90;;;;;;4998870;28;90089;-36
2021/12/13 09:19:46;;;;;;;33.30;27.05;;;9.50;99.90;;;;;;4998514;28;89771;-43
2021/12/13 09:22:31;;;;;;;35.22;27.83;;;9.50;99.90;;;;;;4980729;28;89629;-44
2021/12/13 09:24:58;;;;;;;40.28;27.75;;;9.50;99.90;;;;;;4999199;28;89505;-39
2021/12/13 09:27:33;;;;;;;34.93;27.90;;;9.50;99.90;;;;;;4999170;28;90687;-40
2021/12/13 09:30:04;;;;;;;28.23;23.90;;;9.50;99.90;;;;;;4998458;28;89589;-42
2021/12/13 09:32:39;;;;;;;30.13;24.40;;;9.50;99.90;;;;;;4998893;28;89988;-36
2021/12/13 09:35:39;;;;;;;31.92;24.98;;;9.50;99.90;;;;;;4999005;28;87868;-40
2021/12/13 09:38:23;;;;;;;31.48;26.02;;;9.50;99.90;;;;;;4913071;28;91209;-38
2021/12/13 09:40:59;;;;;;;31.63;26.50;;;9.50;99.90;;;;;;4998173;28;89935;-38
2021/12/13 09:43:43;;;;;;;31.77;25.33;;;9.50;99.90;;;;;;4998590;28;89122;-37
2021/12/13 09:46:12;;;;;;;36.15;24.77;;;9.50;99.90;;;;;;4998867;28;88385;-41
2021/12/13 09:48:48;;;;;;;28.00;23.85;;;9.60;99.90;;;;;;4999004;28;89376;-39
2021/12/13 09:51:32;;;;;;;36.42;25.67;;;9.60;99.90;;;;;;4998040;28;90237;-37
2021/12/13 09:54:02;;;;;;;27.90;24.42;;;9.60;99.90;;;;;;4998649;28;88588;-44
2021/12/13 09:56:34;;;;;;;33.72;24.90;;;9.60;99.90;;;;;;4998236;28;88618;-38
2021/12/13 09:59:23;;;;;;;33.90;26.35;;;9.60;99.90;;;;;;4998386;28;89519;-43
2021/12/13 10:01:51;;;;;;;32.42;22.13;;;9.70;99.90;;;;;;4997319;28;90920;-37
2021/12/13 10:04:39;;;;;;;31.08;24.58;;;9.70;99.90;;;;;;4998279;28;89546;-37
2021/12/13 10:07:12;;;;;;;28.67;23.73;;;9.70;99.90;;;;;;4997980;28;88575;-41
2021/12/13 10:09:43;;;;;;;32.80;22.85;;;9.70;99.90;;;;;;4997771;28;90603;-36
2021/12/13 10:12:20;;;;;;;30.80;25.50;;;9.70;99.90;;;;;;4998424;28;91727;-36
2021/12/13 10:14:58;;;;;;;31.00;24.60;;;9.70;99.90;;;;;;4998109;28;87463;-37
2021/12/13 10:17:30;;;;;;;27.63;23.07;;;9.80;99.90;;;;;;4998438;28;89851;-42
2021/12/13 10:19:59;;;;;;;28.13;23.02;;;9.80;99.90;;;;;;4997506;28;90947;-44
2021/12/13 10:22:27;;;;;;;28.98;24.48;;;9.80;99.90;;;;;;4997881;28;90299;-40
2021/12/13 10:25:00;;;;;;;32.03;23.50;;;9.80;99.90;;;;;;4997700;28;88429;-38
2021/12/13 10:27:26;;;;;;;25.95;20.85;;;9.90;99.90;;;;;;4999010;28;87594;-41
2021/12/13 10:29:57;;;;;;;32.42;25.48;;;9.90;99.90;;;;;;4997160;28;90494;-43
2021/12/13 10:32:27;;;;;;;25.75;21.25;;;9.90;99.90;;;;;;4980257;28;89700;-38
2021/12/13 10:35:07;;;;;;;31.27;23.80;;;9.90;99.90;;;;;;4979154;28;89547;-33
2021/12/13 10:37:38;;;;;;;32.90;21.20;;;9.90;99.90;;;;;;4980566;28;87476;-36
2021/12/13 10:40:18;;;;;;;28.48;24.15;;;9.90;99.90;;;;;;4997844;28;90875;-42
2021/12/13 10:42:50;;;;;;;32.75;23.20;;;9.90;99.90;;;;;;4997392;28;88490;-43
2021/12/13 10:45:26;;;;;;;27.45;21.77;;;9.90;99.90;;;;;;4997405;28;89014;-39
2021/12/13 10:47:55;;;;;;;28.60;20.60;;;9.90;99.90;;;;;;4998173;28;88380;-39
2021/12/13 10:50:28;;;;;;;25.83;21.13;;;9.90;99.90;;;;;;4980268;28;90736;-42
2021/12/13 10:52:54;;;;;;;25.98;21.67;;;9.90;99.90;;;;;;4996961;28;89553;-42
2021/12/13 10:55:36;;;;;;;22.35;19.95;;;10.00;99.90;;;;;;4997823;28;88909;-40
2021/12/13 10:58:04;;;;;;;31.17;20.60;;;9.90;99.90;;;;;;4979413;28;89700;-42
2021/12/13 11:00:39;;;;;;;26.58;22.23;;;9.90;99.90;;;;;;4997780;28;90709;-37
2021/12/13 11:03:17;;;;;;;21.45;18.85;;;10.00;99.90;;;;;;4997484;28;90215;-43
2021/12/13 11:05:43;;;;;;;30.55;20.65;;;10.00;99.90;;;;;;4997340;28;89397;-42
2021/12/13 11:08:13;;;;;;;29.52;20.55;;;9.90;99.90;;;;;;4998333;28;89912;-36
2021/12/13 11:11:00;;;;;;;21.42;17.67;;;9.90;99.90;;;;;;4997304;28;90491;-41
2021/12/13 11:13:30;;;;;;;27.48;19.88;;;9.90;99.90;;;;;;4997834;28;89811;-39
2021/12/13 11:16:05;;;;;;;25.45;18.65;;;9.90;99.90;;;;;;4997256;28;89718;-41
2021/12/13 11:18:32;;;;;;;26.77;18.92;;;10.00;99.90;;;;;;4997645;28;87903;-41
2021/12/13 11:21:04;;;;;;;21.45;18.65;;;10.00;99.90;;;;;;4996991;28;88958;-37
2021/12/13 11:23:30;;;;;;;26.95;18.83;;;10.00;99.90;;;;;;4997088;28;89868;-40
2021/12/13 11:26:03;;;;;;;22.08;18.02;;;10.00;99.90;;;;;;4978754;28;88569;-41
2021/12/13 11:28:29;;;;;;;20.20;17.88;;;10.00;99.90;;;;;;4997118;28;87951;-39
2021/12/13 11:30:56;;;;;;;25.15;19.00;;;10.00;99.90;;;;;;4996801;28;88942;-38
2021/12/13 11:33:47;;;;;;;23.58;19.33;;;10.00;99.90;;;;;;4997112;28;89769;-42
2021/12/13 11:36:44;;;;;;;25.73;19.73;;;10.10;99.90;;;;;;4996918;28;90303;-46
2021/12/13 11:39:57;;;;;;;22.83;18.38;;;10.00;99.90;;;;;;4997435;28;88430;-39
2021/12/13 11:43:02;;;;;;;28.15;20.33;;;10.00;99.90;;;;;;4907490;28;90453;-39
2021/12/13 11:46:05;;;;;;;23.08;17.38;;;10.00;99.90;;;;;;4997914;28;89522;-42
2021/12/13 11:49:08;;;;;;;24.27;18.70;;;10.00;99.90;;;;;;5000634;28;88836;-41
2021/12/13 11:52:08;;;;;;;25.90;19.77;;;10.00;99.90;;;;;;5000692;28;87512;-41
2021/12/13 11:55:11;;;;;;;24.88;19.42;;;10.00;99.90;;;;;;4983096;28;91966;-37
2021/12/13 11:57:56;;;;;;;18.90;16.98;;;10.00;99.90;;;;;;4981943;28;91126;-41
2021/12/13 12:00:59;;;;;;;25.95;17.27;;;10.00;99.90;;;;;;5000211;28;88385;-38
2021/12/13 12:03:53;;;;;;;25.80;18.75;;;10.00;99.90;;;;;;5000681;28;89620;-37
2021/12/13 12:06:50;;;;;;;23.95;19.05;;;10.00;99.90;;;;;;5000808;28;89900;-40
2021/12/13 12:09:39;;;;;;;22.55;19.20;;;10.00;99.90;;;;;;4983129;28;89613;-39
2021/12/13 12:12:42;;;;;;;26.00;18.90;;;10.10;99.90;;;;;;5000184;28;88606;-36
2021/12/13 12:15:09;;;;;;;28.42;19.73;;;10.10;99.90;;;;;;5000303;28;89503;-43
2021/12/13 12:17:35;;;;;;;21.60;18.30;;;10.00;99.90;;;;;;4982325;28;92518;-40
2021/12/13 12:20:07;;;;;;;19.90;17.48;;;10.10;99.90;;;;;;4999881;28;90056;-37
2021/12/13 12:22:53;;;;;;;27.52;19.80;;;10.10;99.90;;;;;;4982108;28;87926;-40
2021/12/13 12:25:24;;;;;;;20.95;17.90;;;10.10;99.90;;;;;;4999355;28;88122;-41
2021/12/13 12:27:56;;;;;;;21.25;18.55;;;10.10;99.90;;;;;;4999577;28;90483;-40
2021/12/13 12:30:26;;;;;;;28.88;20.02;;;10.20;99.90;;;;;;4999572;28;92672;-38
2021/12/13 12:32:57;;;;;;;25.17;19.73;;;10.10;99.90;;;;;;4982468;28;87663;-40
2021/12/13 12:35:36;;;;;;;22.70;18.40;;;10.10;99.90;;;;;;4999730;28;88791;-43
2021/12/13 12:38:17;;;;;;;21.70;18.70;;;10.20;99.90;;;;;;4999873;28;90224;-44
2021/12/13 12:41:31;;;;;;;28.20;18.15;;;10.10;99.90;;;;;;4999083;28;90105;-40
2021/12/13 12:43:57;;;;;;;20.90;18.27;;;10.10;99.90;;;;;;4999793;28;88915;-36
2021/12/13 12:46:23;;;;;;;19.85;17.63;;;10.10;99.90;;;;;;4999363;28;89785;-36
2021/12/13 12:48:52;;;;;;;22.33;17.23;;;10.10;99.90;;;;;;4998540;28;88841;-45
2021/12/13 12:51:39;;;;;;;22.23;17.88;;;10.10;99.90;;;;;;4999104;28;88531;-42
2021/12/13 12:54:14;;;;;;;27.63;18.90;;;10.10;99.90;;;;;;4999957;28;88459;-43
2021/12/13 12:56:48;;;;;;;21.00;16.90;;;10.00;99.90;;;;;;4998288;28;89870;-42
2021/12/13 12:59:13;;;;;;;24.25;17.50;;;10.00;99.90;;;;;;4999423;28;90042;-38
2021/12/13 13:01:41;;;;;;;22.52;17.98;;;10.10;99.90;;;;;;4998370;28;89939;-36
2021/12/13 13:04:16;;;;;;;21.40;16.40;;;10.10;99.90;;;;;;4981342;28;89982;-45
2021/12/13 13:07:00;;;;;;;28.40;19.15;;;10.00;99.90;;;;;;4998808;28;87802;-39
2021/12/13 13:09:45;;;;;;;23.98;18.15;;;10.00;99.90;;;;;;4979894;28;90338;-42
2021/12/13 13:12:25;;;;;;;20.83;16.75;;;10.00;99.90;;;;;;4981118;28;92168;-45
2021/12/13 13:15:07;;;;;;;23.75;17.30;;;10.00;99.90;;;;;;4998680;28;89375;-41
2021/12/13 13:17:38;;;;;;;19.90;15.93;;;10.00;99.90;;;;;;4981028;28;89577;-35
2021/12/13 13:20:27;;;;;;;19.15;17.17;;;10.00;99.90;;;;;;4998670;28;89318;-42
2021/12/13 13:22:56;;;;;;;21.67;18.35;;;10.00;99.90;;;;;;4998570;28;90067;-37
2021/12/13 13:25:47;;;;;;;21.92;16.80;;;10.00;99.90;;;;;;4997311;28;87562;-40
2021/12/13 13:28:21;;;;;;;26.50;19.45;;;10.00;99.90;;;;;;4998738;28;89968;-41
2021/12/13 13:31:03;;;;;;;23.52;17.95;;;10.00;99.90;;;;;;4979758;28;89998;-35